ADDS TAF Board (Experimental) INFO Settings
IDs: Format: Expanded Condensed

KSEA - Seattle-Tacoma Intl, WA, US

Issued at 1728 UTC 28 Jun 2016
Updated at: 1836 UTC 28 Jun 2016
Time1816Z 28/19Z 28/20Z 28/21Z 28/22Z 28/23Z 29/00Z 29/01Z 29/02Z 29/03Z 29/04Z 29/05Z 29/06Z 29/07Z
Type OBS PRVL PRVL PRVL PRVL PRVL PRVL PRVL PRVL PRVL PRVL PRVL PRVL PRVL
VIS 10 >6 >6 >6 >6 >6 >6 >6 >6 >6 >6 >6 >6 >6
CIG -- 11 -- -- -- -- -- -- -- -- -- -- -- --
Cover SCT BKN SCT SCT SKC SKC SKC SKC SKC SKC SKC SKC SKC SKC
FltCat VFR MVFR VFR VFR VFR VFR VFR VFR VFR VFR VFR VFR VFR VFR
WX -- -- -- -- -- -- -- -- -- -- -- -- -- --
WDir VRB 250 260 260 300 300 300 300 300 300 300 300 300 300
WSpd 5 4 6 6 7 7 7 7 7 7 7 7 7 7
WGst -- -- -- -- -- -- -- -- -- -- -- -- -- --
R16/34
XWnd VRB -4 -6 -6 -6 -6 -6 -6 -6 -6 -6 -6 -6 -6
HWnd VRB 1 1 1 -4 -4 -4 -4 -4 -4 -4 -4 -4 -4

NOTE: TEMPO conditions in [brackets]. Keep in mind TEMPO conditions might be better (lower impact) than prevailing conditions.

Raw TAF
KSEA 281728Z 2818/2924 25004KT P6SM BKN011
  FM281920 26006KT P6SM FEW015 SCT250
  FM282200 30007KT P6SM SKC
  FM291100 20006KT P6SM OVC007
  FM291900 25005KT P6SM SCT012


Raw METAR
KSEA 281816Z VRB05KT 10SM SCT013 17/12 A3023 RMK AO2 T01720122
KSEA 281753Z 24007KT 10SM BKN012 16/12 A3023 RMK AO2 SLP243 T01560117 10161 20128 50000
KSEA 281701Z 25003KT 10SM OVC010 14/12 A3023 RMK AO2 T01440117
KSEA 281653Z VRB04KT 10SM OVC009 15/12 A3023 RMK AO2 SLP243 T01500117
KSEA 281553Z VRB04KT 10SM OVC008 14/12 A3024 RMK AO2 SLP243 T01390117

METAR Board
Radar Display
Forecast Discussion

TAF Board Legend

Potential Impact
Threat None Slight Moderate High
Visibility (sm) ≥5.1 5.1>X≥3 3>X≥1 <1
Ceiling (100 ft) ≥30.1 30.1>X≥10 10>X≥5 <5
Wind Speed (kt) <10 10≤X<20 20≤X<30 ≥30
Wind Gust (kt) <15 15≤X<25 25≤X<35 ≥35
Weather No Wx Reported VCTS,-TS,-FZRA,SN TS,FZRA +TS,+FZRA,+SN